createdAt,value
2022-09-20T00:01:32.432Z,11.71
2022-09-20T00:04:01.411Z,11.70
2022-09-20T00:06:30.354Z,11.66
2022-09-20T00:08:57.954Z,11.65
2022-09-20T00:11:27.486Z,11.62
2022-09-20T00:13:56.366Z,11.61
2022-09-20T00:16:32.252Z,11.58
2022-09-20T00:19:01.103Z,11.57
2022-09-20T00:21:29.528Z,11.55
2022-09-20T00:23:57.669Z,11.51
2022-09-20T00:26:28.013Z,11.45
2022-09-20T00:28:55.282Z,11.43
2022-09-20T00:31:22.073Z,11.43
2022-09-20T00:34:07.553Z,11.41
2022-09-20T00:36:34.262Z,11.39
2022-09-20T00:39:02.221Z,11.39
2022-09-20T00:41:30.692Z,11.38
2022-09-20T00:43:57.878Z,11.33
2022-09-20T00:46:26.787Z,11.27
2022-09-20T00:52:02.113Z,11.26
2022-09-20T00:54:35.126Z,11.25
2022-09-20T00:57:12.285Z,11.25
2022-09-20T00:59:51.799Z,11.21
2022-09-20T01:02:23.524Z,11.16
2022-09-20T01:04:50.606Z,11.14
2022-09-20T01:07:19.153Z,11.13
2022-09-20T01:09:45.899Z,11.09
2022-09-20T01:12:18.583Z,11.07
2022-09-20T01:14:46.850Z,11.06
2022-09-20T01:17:14.077Z,11.01
2022-09-20T01:19:59.610Z,10.96
2022-09-20T01:22:50.431Z,10.91
2022-09-20T01:25:18.310Z,10.96
2022-09-20T01:27:46.839Z,10.91
2022-09-20T01:30:20.094Z,10.88
2022-09-20T01:33:14.598Z,10.86
2022-09-20T01:35:42.953Z,10.85
2022-09-20T01:38:12.520Z,10.84
2022-09-20T01:41:19.230Z,10.84
2022-09-20T01:43:53.287Z,10.77
2022-09-20T01:46:31.683Z,10.74
2022-09-20T01:49:21.380Z,10.72
2022-09-20T01:51:54.082Z,10.69
2022-09-20T01:54:45.410Z,10.68
2022-09-20T01:57:18.243Z,10.70
2022-09-20T02:00:00.698Z,10.70
2022-09-20T02:02:59.976Z,10.71
2022-09-20T02:05:34.903Z,10.71
2022-09-20T02:08:04.617Z,10.70
2022-09-20T02:11:04.953Z,10.66
2022-09-20T02:13:40.891Z,10.62
2022-09-20T02:16:14.027Z,10.56
2022-09-20T02:19:11.794Z,10.54
2022-09-20T02:21:49.187Z,10.51
2022-09-20T02:24:27.947Z,10.52
2022-09-20T02:27:25.375Z,10.50
2022-09-20T02:30:29.841Z,10.44
2022-09-20T02:33:34.098Z,10.39
2022-09-20T02:36:09.824Z,10.36
2022-09-20T02:39:08.406Z,10.35
2022-09-20T02:42:04.852Z,10.35
2022-09-20T02:44:43.702Z,10.36
2022-09-20T02:47:36.824Z,10.34
2022-09-20T02:50:34.026Z,10.32
2022-09-20T02:53:06.027Z,10.22
2022-09-20T02:55:38.689Z,10.19
2022-09-20T02:58:39.172Z,10.20
2022-09-20T03:01:44.309Z,10.20
2022-09-20T03:04:33.293Z,10.18
2022-09-20T03:07:21.351Z,10.13
2022-09-20T03:10:02.058Z,10.09
2022-09-20T03:12:47.432Z,10.10
2022-09-20T03:15:29.786Z,10.05
2022-09-20T03:18:05.446Z,10.04
2022-09-20T03:20:44.299Z,10.01
2022-09-20T03:23:29.704Z,10.01
2022-09-20T03:26:14.705Z,10.01
2022-09-20T03:28:57.366Z,9.98
2022-09-20T03:31:38.674Z,9.98
2022-09-20T03:34:24.127Z,10.00
2022-09-20T03:37:15.297Z,10.01
2022-09-20T03:39:51.043Z,10.03
2022-09-20T03:42:25.578Z,10.03
2022-09-20T03:45:17.381Z,10.07
2022-09-20T03:47:54.108Z,10.10
2022-09-20T03:50:36.004Z,10.13
2022-09-20T03:53:05.839Z,10.13
2022-09-20T03:56:11.298Z,10.16
2022-09-20T03:58:59.746Z,10.18
2022-09-20T04:01:41.387Z,10.20
2022-09-20T04:04:15.680Z,10.22
2022-09-20T04:07:00.274Z,10.21
2022-09-20T04:09:51.746Z,10.21
2022-09-20T04:12:58.971Z,10.17
2022-09-20T04:15:32.646Z,10.15
2022-09-20T04:18:11.775Z,10.13
2022-09-20T04:20:57.935Z,10.12
2022-09-20T04:23:30.364Z,10.11
2022-09-20T04:25:57.972Z,10.11
2022-09-20T04:28:34.727Z,10.07
2022-09-20T04:31:10.213Z,10.07
2022-09-20T04:33:41.762Z,10.06
2022-09-20T04:36:31.244Z,10.05
2022-09-20T04:39:34.608Z,10.05
2022-09-20T04:42:35.242Z,10.01
2022-09-20T04:45:11.302Z,9.97
2022-09-20T04:48:14.631Z,9.93
2022-09-20T04:51:29.482Z,9.92
2022-09-20T04:53:59.344Z,9.86
2022-09-20T04:56:28.983Z,9.70
2022-09-20T04:59:06.019Z,9.45
2022-09-20T05:02:15.042Z,9.36
2022-09-20T05:05:05.033Z,9.28
2022-09-20T05:08:21.077Z,9.23
2022-09-20T05:10:59.210Z,9.21
2022-09-20T05:13:53.065Z,9.19
2022-09-20T05:16:50.445Z,9.14
2022-09-20T05:19:58.527Z,9.09
2022-09-20T05:23:02.046Z,9.04
2022-09-20T05:25:38.386Z,8.97
2022-09-20T05:28:41.518Z,8.91
2022-09-20T05:31:26.667Z,8.96
2022-09-20T05:34:04.422Z,9.01
2022-09-20T05:36:42.062Z,9.06
2022-09-20T05:39:29.864Z,9.11
2022-09-20T05:41:58.389Z,9.09
2022-09-20T05:44:47.272Z,9.05
2022-09-20T05:48:05.467Z,9.07
2022-09-20T05:51:03.113Z,9.14
2022-09-20T05:54:06.780Z,9.18
2022-09-20T05:56:51.216Z,9.25
2022-09-20T05:59:36.499Z,9.28
2022-09-20T06:02:26.403Z,9.18
2022-09-20T06:05:15.010Z,9.02
2022-09-20T06:07:53.054Z,9.06
2022-09-20T06:10:48.780Z,9.15
2022-09-20T06:13:20.132Z,9.21
2022-09-20T06:15:58.204Z,9.21
2022-09-20T06:18:40.300Z,9.21
2022-09-20T06:21:40.371Z,9.27
2022-09-20T06:24:19.712Z,9.30
2022-09-20T06:26:46.740Z,9.34
2022-09-20T06:29:14.975Z,9.42
2022-09-20T06:31:41.718Z,9.50
2022-09-20T06:34:10.962Z,9.61
2022-09-20T06:36:58.563Z,9.73
2022-09-20T06:39:51.025Z,9.88
2022-09-20T06:42:17.991Z,10.05
2022-09-20T06:44:44.703Z,10.15
2022-09-20T06:47:12.750Z,10.33
2022-09-20T06:49:42.365Z,10.44
2022-09-20T06:52:14.136Z,10.58
2022-09-20T06:54:45.876Z,10.71
2022-09-20T06:57:17.539Z,10.84
2022-09-20T06:59:45.307Z,10.99
2022-09-20T07:02:12.387Z,11.09
2022-09-20T07:04:40.046Z,11.31
2022-09-20T07:07:09.790Z,11.47
2022-09-20T07:09:36.739Z,11.57
2022-09-20T07:12:03.580Z,11.50
2022-09-20T07:14:31.138Z,11.14
2022-09-20T07:16:57.817Z,10.84
2022-09-20T07:19:24.586Z,10.79
2022-09-20T07:21:51.343Z,10.83
2022-09-20T07:24:18.177Z,10.95
2022-09-20T07:27:01.070Z,11.13
2022-09-20T07:29:28.719Z,11.31
2022-09-20T07:31:56.648Z,11.47
2022-09-20T07:34:24.085Z,11.64
2022-09-20T07:36:51.335Z,11.63
2022-09-20T07:39:18.615Z,11.71
2022-09-20T07:41:50.736Z,11.80
2022-09-20T07:44:21.587Z,11.91
2022-09-20T07:46:49.773Z,11.98
2022-09-20T07:49:16.702Z,12.09
2022-09-20T07:51:43.686Z,12.15
2022-09-20T07:54:12.959Z,12.23
2022-09-20T07:56:40.121Z,12.29
2022-09-20T07:59:07.031Z,12.36
2022-09-20T08:01:35.139Z,12.44
2022-09-20T08:04:02.156Z,12.50
2022-09-20T08:06:28.919Z,12.51
2022-09-20T08:08:55.678Z,12.53
2022-09-20T08:11:27.721Z,12.60
2022-09-20T08:14:11.302Z,12.67
2022-09-20T08:16:40.652Z,12.75
2022-09-20T08:19:07.444Z,12.71
2022-09-20T08:21:35.674Z,12.79
2022-09-20T08:24:04.175Z,12.95
2022-09-20T08:26:31.681Z,13.08
2022-09-20T08:28:59.818Z,13.19
2022-09-20T08:31:31.576Z,13.28
2022-09-20T08:33:59.214Z,13.38
2022-09-20T08:36:26.489Z,13.41
2022-09-20T08:41:45.011Z,13.60
2022-09-20T08:44:36.242Z,13.62
2022-09-20T08:47:22.512Z,13.65
2022-09-20T08:49:56.739Z,13.78
2022-09-20T08:52:36.986Z,13.78
2022-09-20T08:55:37.528Z,13.80
2022-09-20T08:58:08.519Z,13.80
2022-09-20T09:00:37.226Z,13.87
2022-09-20T09:03:06.800Z,14.06
2022-09-20T09:05:40.519Z,14.23
2022-09-20T09:08:16.371Z,14.36
2022-09-20T09:10:46.437Z,14.52
2022-09-20T09:13:22.969Z,14.62
2022-09-20T09:15:54.704Z,14.71
2022-09-20T09:18:21.438Z,14.76
2022-09-20T09:20:48.673Z,14.67
2022-09-20T09:23:26.959Z,14.65
2022-09-20T09:25:56.512Z,14.75
2022-09-20T09:28:25.808Z,14.86
2022-09-20T09:30:52.722Z,14.92
2022-09-20T09:33:30.699Z,15.02
2022-09-20T09:36:00.629Z,15.17
2022-09-20T09:38:30.202Z,15.31
2022-09-20T09:40:59.460Z,15.42
2022-09-20T09:43:30.083Z,15.53
2022-09-20T09:46:27.196Z,15.66
2022-09-20T09:49:16.969Z,15.75
2022-09-20T09:52:02.668Z,15.76
2022-09-20T09:54:38.964Z,15.85
2022-09-20T09:57:23.454Z,15.95
2022-09-20T10:00:19.127Z,16.06
2022-09-20T10:02:48.307Z,16.06
2022-09-20T10:05:24.096Z,16.05
2022-09-20T10:08:06.046Z,16.10
2022-09-20T10:10:55.162Z,16.22
2022-09-20T10:13:41.254Z,16.33
2022-09-20T10:16:32.293Z,16.43
2022-09-20T10:19:22.602Z,16.42
2022-09-20T10:22:01.823Z,16.51
2022-09-20T10:24:31.479Z,16.64
2022-09-20T10:27:16.356Z,16.74
2022-09-20T10:29:58.246Z,16.82
2022-09-20T10:32:31.567Z,16.92
2022-09-20T10:35:01.999Z,17.05
2022-09-20T10:37:50.330Z,17.14
2022-09-20T10:40:47.418Z,17.23
2022-09-20T10:43:33.041Z,17.20
2022-09-20T10:46:31.838Z,17.12
2022-09-20T10:49:24.980Z,17.24
2022-09-20T10:52:19.217Z,17.54
2022-09-20T10:55:04.709Z,17.74
2022-09-20T10:57:52.893Z,17.97
2022-09-20T11:00:32.458Z,18.22
2022-09-20T11:03:23.574Z,18.46
2022-09-20T11:05:59.582Z,18.67
2022-09-20T11:08:33.853Z,18.61
2022-09-20T11:11:22.833Z,18.50
2022-09-20T11:14:21.310Z,18.58
2022-09-20T11:17:12.117Z,18.48
2022-09-20T11:20:16.326Z,18.25
2022-09-20T11:22:48.072Z,18.26
2022-09-20T11:25:29.460Z,18.28
2022-09-20T11:28:14.371Z,18.29
2022-09-20T11:31:16.838Z,18.14
2022-09-20T11:34:03.278Z,17.92
2022-09-20T11:36:39.501Z,17.89
2022-09-20T11:39:19.418Z,17.93
2022-09-20T11:41:47.218Z,17.99
2022-09-20T11:44:16.970Z,18.09
2022-09-20T11:46:52.975Z,18.25
2022-09-20T11:49:48.710Z,18.46
2022-09-20T11:52:36.379Z,18.67
2022-09-20T11:55:21.843Z,18.77
2022-09-20T11:58:04.687Z,18.78
2022-09-20T12:00:35.359Z,18.80
2022-09-20T12:03:04.627Z,18.86
2022-09-20T12:05:35.565Z,18.88
2022-09-20T12:08:05.621Z,18.98
2022-09-20T12:10:35.444Z,19.17
2022-09-20T12:13:05.686Z,19.16
2022-09-20T12:15:42.367Z,19.02
2022-09-20T12:18:33.155Z,18.76
2022-09-20T12:21:01.310Z,18.83
2022-09-20T12:23:43.278Z,18.92
2022-09-20T12:26:22.692Z,19.17
2022-09-20T12:29:01.287Z,19.32
2022-09-20T12:31:34.209Z,19.47
2022-09-20T12:34:01.172Z,19.35
2022-09-20T12:36:44.179Z,19.31
2022-09-20T12:39:17.658Z,19.56
2022-09-20T12:41:51.973Z,19.71
2022-09-20T12:44:28.980Z,19.95
2022-09-20T12:46:58.780Z,20.22
2022-09-20T12:49:55.557Z,20.57
2022-09-20T12:52:50.718Z,20.62
2022-09-20T12:55:49.600Z,20.19
2022-09-20T12:58:16.394Z,19.83
2022-09-20T13:01:04.436Z,19.92
2022-09-20T13:03:40.255Z,20.02
2022-09-20T13:06:12.482Z,20.20
2022-09-20T13:08:57.906Z,20.26
2022-09-20T13:11:43.372Z,20.33
2022-09-20T13:14:13.127Z,20.33
2022-09-20T13:17:02.720Z,20.23
2022-09-20T13:19:38.082Z,20.23
2022-09-20T13:22:14.939Z,20.21
2022-09-20T13:24:43.207Z,20.20
2022-09-20T13:27:19.273Z,20.24
2022-09-20T13:29:46.406Z,20.09
2022-09-20T13:32:30.056Z,20.06
2022-09-20T13:35:16.834Z,20.04
2022-09-20T13:37:55.094Z,20.13
2022-09-20T13:40:35.558Z,20.30
2022-09-20T13:43:23.613Z,20.34
2022-09-20T13:46:10.904Z,20.32
2022-09-20T13:48:39.361Z,20.21
2022-09-20T13:51:27.376Z,20.01
2022-09-20T13:53:55.843Z,20.02
2022-09-20T13:56:28.778Z,20.05
2022-09-20T13:58:59.265Z,19.87
2022-09-20T14:01:31.976Z,19.80
2022-09-20T14:04:09.878Z,19.87
2022-09-20T14:06:37.565Z,20.09
2022-09-20T14:09:10.983Z,19.92
2022-09-20T14:11:39.947Z,19.55
2022-09-20T14:14:08.405Z,19.37
2022-09-20T14:16:41.017Z,19.08
2022-09-20T14:19:08.876Z,18.81
2022-09-20T14:21:37.620Z,18.75
2022-09-20T14:24:25.837Z,18.67
2022-09-20T14:27:19.331Z,18.55
2022-09-20T14:29:51.458Z,18.50
2022-09-20T14:32:18.398Z,18.39
2022-09-20T14:34:58.823Z,18.34
2022-09-20T14:37:25.847Z,18.36
2022-09-20T14:39:57.083Z,18.30
2022-09-20T14:42:31.297Z,18.21
2022-09-20T14:44:58.449Z,18.00
2022-09-20T14:47:36.999Z,17.92
2022-09-20T14:50:24.879Z,17.86
2022-09-20T14:53:21.540Z,17.97
2022-09-20T14:56:00.445Z,18.17
2022-09-20T14:58:27.338Z,18.40
2022-09-20T15:01:05.536Z,18.52
2022-09-20T15:03:40.453Z,18.71
2022-09-20T15:06:10.913Z,18.90
2022-09-20T15:08:37.584Z,19.10
2022-09-20T15:11:04.670Z,19.25
2022-09-20T15:13:31.490Z,19.48
2022-09-20T15:15:58.444Z,19.76
2022-09-20T15:18:27.697Z,20.04
2022-09-20T15:20:55.384Z,20.21
2022-09-20T15:23:22.504Z,20.88
2022-09-20T15:25:53.659Z,21.33
2022-09-20T15:28:21.103Z,23.17
2022-09-20T15:30:50.485Z,26.11
2022-09-20T15:33:18.958Z,27.18
2022-09-20T15:35:46.173Z,27.59
2022-09-20T15:38:14.105Z,32.38
2022-09-20T15:40:47.900Z,38.69
2022-09-20T15:43:17.135Z,43.20
2022-09-20T15:45:50.268Z,37.89
2022-09-20T15:48:22.854Z,32.72
2022-09-20T15:51:03.220Z,28.23
2022-09-20T15:53:32.775Z,25.81
2022-09-20T15:56:01.837Z,24.06
2022-09-20T15:58:36.212Z,22.77
2022-09-20T16:01:07.979Z,21.64
2022-09-20T16:03:36.134Z,20.71
2022-09-20T16:06:07.190Z,20.17
2022-09-20T16:08:38.906Z,19.80
2022-09-20T16:11:07.440Z,19.48
2022-09-20T16:13:36.327Z,19.00
2022-09-20T16:16:04.221Z,18.63
2022-09-20T16:18:50.174Z,18.32
2022-09-20T16:21:18.478Z,18.18
2022-09-20T16:23:53.400Z,18.02
2022-09-20T16:26:21.594Z,17.76
2022-09-20T16:28:49.205Z,17.62
2022-09-20T16:31:41.624Z,17.59
2022-09-20T16:34:22.922Z,17.59
2022-09-20T16:36:51.854Z,17.53
2022-09-20T16:39:19.846Z,17.44
2022-09-20T16:41:48.244Z,17.35
2022-09-20T16:44:25.154Z,17.23
2022-09-20T16:46:59.121Z,17.18
2022-09-20T16:49:30.341Z,17.12
2022-09-20T16:52:01.128Z,17.07
2022-09-20T16:54:33.081Z,17.03
2022-09-20T16:57:04.558Z,16.98
2022-09-20T16:59:31.278Z,16.99
2022-09-20T17:02:00.234Z,16.94
2022-09-20T17:04:27.071Z,16.88
2022-09-20T17:06:53.816Z,16.84
2022-09-20T17:09:20.967Z,16.76
2022-09-20T17:11:51.737Z,16.70
2022-09-20T17:14:20.614Z,16.65
2022-09-20T17:16:49.114Z,16.59
2022-09-20T17:19:18.673Z,16.53
2022-09-20T17:21:51.753Z,16.47
2022-09-20T17:24:20.687Z,16.42
2022-09-20T17:26:48.892Z,16.32
2022-09-20T17:29:17.641Z,16.20
2022-09-20T17:31:51.576Z,16.16
2022-09-20T17:34:21.914Z,16.10
2022-09-20T17:36:49.456Z,16.07
2022-09-20T17:39:16.775Z,16.03
2022-09-20T17:41:45.926Z,15.98
2022-09-20T17:44:13.033Z,15.94
2022-09-20T17:46:41.866Z,15.90
2022-09-20T17:49:10.940Z,15.85
2022-09-20T17:51:39.915Z,15.84
2022-09-20T17:54:07.643Z,15.83
2022-09-20T17:56:35.507Z,15.77
2022-09-20T17:59:03.955Z,15.75
2022-09-20T18:01:32.535Z,15.83
2022-09-20T18:04:01.090Z,15.93
2022-09-20T18:06:31.828Z,16.01
2022-09-20T18:09:01.144Z,16.09
2022-09-20T18:11:35.063Z,16.17
2022-09-20T18:14:03.465Z,16.23
2022-09-20T18:16:31.102Z,16.30
2022-09-20T18:18:59.840Z,16.34
2022-09-20T18:21:28.767Z,16.36
2022-09-20T18:23:57.333Z,16.40
2022-09-20T18:26:26.642Z,16.41
2022-09-20T18:28:53.397Z,16.43
2022-09-20T18:31:21.445Z,16.43
2022-09-20T18:33:49.771Z,16.44
2022-09-20T18:36:16.837Z,16.43
2022-09-20T18:38:47.187Z,16.41
2022-09-20T18:41:14.498Z,16.40
2022-09-20T18:43:44.440Z,16.37
2022-09-20T18:46:12.211Z,16.37
2022-09-20T18:48:40.266Z,16.34
2022-09-20T18:51:08.583Z,16.31
2022-09-20T18:53:38.517Z,16.28
2022-09-20T18:56:06.478Z,16.27
2022-09-20T18:58:33.551Z,16.26
2022-09-20T19:01:11.898Z,16.20
2022-09-20T19:03:54.461Z,16.18
2022-09-20T19:06:24.296Z,16.16
2022-09-20T19:09:43.613Z,16.13
2022-09-20T19:12:20.035Z,16.09
2022-09-20T19:15:04.671Z,16.04
2022-09-20T19:18:28.514Z,16.02
2022-09-20T19:21:13.855Z,15.95
2022-09-20T19:23:43.558Z,15.89
2022-09-20T19:26:21.870Z,15.85
2022-09-20T19:28:50.231Z,15.83
2022-09-20T19:31:27.054Z,15.79
2022-09-20T19:33:55.219Z,15.76
2022-09-20T19:36:23.578Z,15.73
2022-09-20T19:39:02.730Z,15.68
2022-09-20T19:41:39.576Z,15.65
2022-09-20T19:44:30.638Z,15.61
2022-09-20T19:47:34.206Z,15.58
2022-09-20T19:50:15.943Z,15.53
2022-09-20T19:52:44.055Z,15.49
2022-09-20T19:55:14.396Z,15.44
2022-09-20T19:57:47.226Z,15.41
2022-09-20T20:00:17.030Z,15.40
2022-09-20T20:02:44.777Z,15.35
2022-09-20T20:05:19.820Z,15.33
2022-09-20T20:08:16.989Z,15.31
2022-09-20T20:11:17.115Z,15.29
2022-09-20T20:14:05.182Z,15.26
2022-09-20T20:17:07.515Z,15.23
2022-09-20T20:19:42.938Z,15.19
2022-09-20T20:22:12.331Z,15.16
2022-09-20T20:24:51.773Z,15.14
2022-09-20T20:27:19.495Z,15.12
2022-09-20T20:29:46.493Z,15.11
2022-09-20T20:32:13.463Z,15.12
2022-09-20T20:34:40.295Z,15.12
2022-09-20T20:37:07.600Z,15.12
2022-09-20T20:39:34.439Z,15.12
2022-09-20T20:42:02.915Z,15.10
2022-09-20T20:44:35.201Z,15.09
2022-09-20T20:47:03.215Z,15.08
2022-09-20T20:49:30.235Z,15.05
2022-09-20T20:51:58.485Z,15.05
2022-09-20T20:54:25.743Z,15.05
2022-09-20T20:56:52.431Z,15.05
2022-09-20T20:59:19.223Z,15.04
2022-09-20T21:01:46.104Z,15.01
2022-09-20T21:04:13.508Z,14.99
2022-09-20T21:06:41.588Z,14.97
2022-09-20T21:09:09.823Z,14.94
2022-09-20T21:11:38.526Z,14.92
2022-09-20T21:14:07.276Z,14.90
2022-09-20T21:16:36.236Z,14.89
2022-09-20T21:19:04.314Z,14.87
2022-09-20T21:21:34.035Z,14.84
2022-09-20T21:24:05.964Z,14.81
2022-09-20T21:26:34.868Z,14.79
2022-09-20T21:29:06.595Z,14.77
2022-09-20T21:31:36.336Z,14.74
2022-09-20T21:34:08.300Z,14.70
2022-09-20T21:36:36.284Z,14.67
2022-09-20T21:39:03.698Z,14.66
2022-09-20T21:41:32.793Z,14.64
2022-09-20T21:44:00.811Z,14.62
2022-09-20T21:46:30.433Z,14.60
2022-09-20T21:48:59.450Z,14.56
2022-09-20T21:51:27.055Z,14.54
2022-09-20T21:53:56.543Z,14.49
2022-09-20T21:56:25.016Z,14.46
2022-09-20T21:58:51.895Z,14.43
2022-09-20T22:01:22.470Z,14.40
2022-09-20T22:03:50.062Z,14.46
2022-09-20T22:06:19.086Z,14.35
2022-09-20T22:08:53.920Z,14.30
2022-09-20T22:11:22.235Z,14.28
2022-09-20T22:13:50.078Z,14.23
2022-09-20T22:16:34.391Z,14.19
2022-09-20T22:19:01.880Z,14.16
2022-09-20T22:21:31.408Z,14.16
2022-09-20T22:24:01.114Z,14.15
2022-09-20T22:26:32.879Z,14.10
2022-09-20T22:29:00.469Z,14.06
2022-09-20T22:31:29.056Z,13.99
2022-09-20T22:33:57.738Z,13.98
2022-09-20T22:36:26.576Z,13.98
2022-09-20T22:38:53.918Z,13.96
2022-09-20T22:41:21.117Z,13.92
2022-09-20T22:43:47.957Z,13.86
2022-09-20T22:46:17.470Z,13.80
2022-09-20T22:48:44.658Z,13.81
2022-09-20T22:51:19.901Z,13.79
2022-09-20T22:53:47.538Z,13.77
2022-09-20T22:56:21.130Z,13.71
2022-09-20T22:58:53.008Z,13.71
2022-09-20T23:01:30.734Z,13.69
2022-09-20T23:04:04.019Z,13.65
2022-09-20T23:06:33.329Z,13.53
2022-09-20T23:09:02.193Z,13.49
2022-09-20T23:11:29.489Z,13.50
2022-09-20T23:14:00.778Z,13.51
2022-09-20T23:16:29.436Z,13.52
2022-09-20T23:18:57.446Z,13.52
2022-09-20T23:21:24.775Z,13.50
2022-09-20T23:23:59.407Z,13.46
2022-09-20T23:26:27.743Z,13.46
2022-09-20T23:28:57.407Z,13.45
2022-09-20T23:31:24.571Z,13.45
2022-09-20T23:33:54.239Z,13.43
2022-09-20T23:36:21.987Z,13.42
2022-09-20T23:38:49.146Z,13.39
2022-09-20T23:41:19.795Z,13.35
2022-09-20T23:43:46.745Z,13.46
2022-09-20T23:46:14.883Z,13.38
2022-09-20T23:48:42.123Z,13.34
2022-09-20T23:51:10.782Z,13.28
2022-09-20T23:53:37.531Z,13.28
2022-09-20T23:56:06.206Z,13.27
2022-09-20T23:58:36.201Z,13.27
